QFA144 NZAA-YSSY
Flight info
| Callsign | QFA144 |
|---|---|
| Flight time | 3h 9m |
| Altitude | 38000 |
| Route | VELMO DCT 38S163E DCT PLUGA DCT RIKNI N774 MARLN |
| Aircraft | B738/M-SDE2E3FGHIRWXY/LB1 |
Departure
| Time | 2026-05-06 05:56 |
|---|---|
| Airport | Auckland International Airport (NZAA) |
Arrival
| Time | 2026-05-06 09:05 |
|---|---|
| Airport | Sydney Kingsford Smith International Airport (YSSY) |
| Time | Latitude | Longitude | Altitude | Speed | Heading |
|---|---|---|---|---|---|
| 2026-05-06 05:33 | -37.00621 | 174.78195 | 25 ft | 0 kts | 117° |
| 2026-05-06 05:44 | -37.00617 | 174.78186 | 25 ft | 2 kts | 117° |
| 2026-05-06 05:44 | -37.00609 | 174.78168 | 25 ft | 2 kts | 117° |
| 2026-05-06 05:44 | -37.00602 | 174.78150 | 25 ft | 2 kts | 114° |
| 2026-05-06 05:45 | -37.00596 | 174.78131 | 25 ft | 2 kts | 114° |
| 2026-05-06 05:45 | -37.00587 | 174.78106 | 25 ft | 3 kts | 114° |
| 2026-05-06 05:45 | -37.00577 | 174.78079 | 27 ft | 3 kts | 114° |
| 2026-05-06 05:45 | -37.00570 | 174.78051 | 30 ft | 3 kts | 96° |
| 2026-05-06 05:46 | -37.00571 | 174.78021 | 25 ft | 3 kts | 71° |
| 2026-05-06 05:46 | -37.00577 | 174.77999 | 29 ft | 3 kts | 71° |
| 2026-05-06 05:46 | -37.00583 | 174.77977 | 25 ft | 3 kts | 71° |
| 2026-05-06 05:46 | -37.00589 | 174.77955 | 25 ft | 3 kts | 71° |
| 2026-05-06 05:47 | -37.00595 | 174.77932 | 25 ft | 3 kts | 71° |
| 2026-05-06 05:47 | -37.00601 | 174.77909 | 28 ft | 3 kts | 71° |
| 2026-05-06 05:47 | -37.00603 | 174.77902 | 25 ft | 0 kts | 71° |
| 2026-05-06 05:49 | -37.00603 | 174.77904 | 25 ft | 1 kts | 71° |
| 2026-05-06 05:49 | -37.00595 | 174.77966 | 26 ft | 13 kts | 96° |
| 2026-05-06 05:49 | -37.00672 | 174.78044 | 28 ft | 17 kts | 185° |
| 2026-05-06 05:50 | -37.00774 | 174.78007 | 27 ft | 14 kts | 181° |
| 2026-05-06 05:50 | -37.00877 | 174.78046 | 28 ft | 18 kts | 161° |
| 2026-05-06 05:50 | -37.00990 | 174.78095 | 28 ft | 16 kts | 160° |
| 2026-05-06 05:50 | -37.01068 | 174.78051 | 27 ft | 15 kts | 251° |
| 2026-05-06 05:51 | -37.01106 | 174.77918 | 25 ft | 9 kts | 250° |
| 2026-05-06 05:51 | -37.01136 | 174.77807 | 25 ft | 18 kts | 250° |
| 2026-05-06 05:51 | -37.01208 | 174.77741 | 28 ft | 13 kts | 165° |
| 2026-05-06 05:51 | -37.01279 | 174.77657 | 27 ft | 19 kts | 251° |
| 2026-05-06 05:52 | -37.01331 | 174.77472 | 26 ft | 23 kts | 251° |
| 2026-05-06 05:52 | -37.01385 | 174.77275 | 28 ft | 23 kts | 251° |
| 2026-05-06 05:52 | -37.01442 | 174.77116 | 27 ft | 14 kts | 213° |
| 2026-05-06 05:52 | -37.01501 | 174.77099 | 25 ft | 0 kts | 190° |
| 2026-05-06 05:53 | -37.01503 | 174.77098 | 25 ft | 2 kts | 190° |
| 2026-05-06 05:53 | -37.01560 | 174.77084 | 28 ft | 15 kts | 192° |
| 2026-05-06 05:54 | -37.01625 | 174.77101 | 28 ft | 4 kts | 84° |
| 2026-05-06 05:54 | -37.01619 | 174.77123 | 25 ft | 0 kts | 70° |
| 2026-05-06 05:55 | -37.01591 | 174.77226 | 25 ft | 45 kts | 71° |
| 2026-05-06 05:55 | -37.01395 | 174.77938 | 28 ft | 125 kts | 71° |
| 2026-05-06 05:55 | -37.01060 | 174.79195 | 225 ft | 171 kts | 71° |
| 2026-05-06 05:56 | -37.00654 | 174.80715 | 763 ft | 198 kts | 65° |
| 2026-05-06 05:56 | -37.00099 | 174.82223 | 1884 ft | 186 kts | 68° |
| 2026-05-06 05:56 | -36.99664 | 174.83805 | 2680 ft | 200 kts | 70° |
| 2026-05-06 05:56 | -36.99221 | 174.85504 | 3297 ft | 209 kts | 70° |
| 2026-05-06 05:57 | -36.98754 | 174.87253 | 3990 ft | 214 kts | 69° |
| 2026-05-06 05:57 | -36.98325 | 174.89054 | 4689 ft | 222 kts | 80° |
| 2026-05-06 05:57 | -36.98608 | 174.91034 | 5118 ft | 245 kts | 116° |
| 2026-05-06 05:57 | -36.99798 | 174.92667 | 5577 ft | 270 kts | 147° |
| 2026-05-06 05:58 | -37.01598 | 174.93467 | 6304 ft | 282 kts | 174° |
| 2026-05-06 05:58 | -37.03543 | 174.93171 | 7154 ft | 286 kts | 203° |
| 2026-05-06 05:58 | -37.05120 | 174.91707 | 7983 ft | 285 kts | 236° |
| 2026-05-06 05:58 | -37.05976 | 174.89485 | 8790 ft | 285 kts | 254° |
| 2026-05-06 05:59 | -37.06551 | 174.87085 | 9540 ft | 291 kts | 256° |
| 2026-05-06 05:59 | -37.07147 | 174.84571 | 9929 ft | 311 kts | 255° |
| 2026-05-06 05:59 | -37.07819 | 174.82015 | 10942 ft | 302 kts | 253° |
| 2026-05-06 05:59 | -37.08498 | 174.79572 | 12044 ft | 294 kts | 253° |
| 2026-05-06 06:00 | -37.09181 | 174.77159 | 12768 ft | 296 kts | 253° |
| 2026-05-06 06:00 | -37.09962 | 174.74713 | 13168 ft | 312 kts | 247° |
| 2026-05-06 06:00 | -37.10615 | 174.73063 | 13271 ft | 327 kts | 245° |
| 2026-05-06 06:00 | -37.12121 | 174.69558 | 13497 ft | 355 kts | 244° |
| 2026-05-06 06:01 | -37.12920 | 174.67729 | 13624 ft | 367 kts | 243° |
| 2026-05-06 06:01 | -37.14160 | 174.64883 | 14074 ft | 375 kts | 244° |
| 2026-05-06 06:01 | -37.15406 | 174.61995 | 14708 ft | 378 kts | 244° |
| 2026-05-06 06:01 | -37.16648 | 174.59085 | 15397 ft | 379 kts | 244° |
| 2026-05-06 06:02 | -37.17890 | 174.56155 | 16068 ft | 381 kts | 244° |
| 2026-05-06 06:02 | -37.19131 | 174.53210 | 16678 ft | 383 kts | 244° |
| 2026-05-06 06:02 | -37.20377 | 174.50245 | 17252 ft | 387 kts | 244° |
| 2026-05-06 06:02 | -37.21634 | 174.47244 | 17840 ft | 389 kts | 244° |
| 2026-05-06 06:03 | -37.22897 | 174.44226 | 18434 ft | 391 kts | 244° |
| 2026-05-06 06:03 | -37.24162 | 174.41202 | 18985 ft | 394 kts | 244° |
| 2026-05-06 06:03 | -37.25440 | 174.38141 | 19491 ft | 397 kts | 244° |
| 2026-05-06 06:03 | -37.26725 | 174.35063 | 20003 ft | 399 kts | 244° |
| 2026-05-06 06:04 | -37.28018 | 174.31965 | 20528 ft | 401 kts | 243° |
| 2026-05-06 06:04 | -37.29316 | 174.28851 | 21021 ft | 404 kts | 243° |
| 2026-05-06 06:04 | -37.30621 | 174.25716 | 21487 ft | 406 kts | 243° |
| 2026-05-06 06:04 | -37.31936 | 174.22556 | 21939 ft | 409 kts | 243° |
| 2026-05-06 06:05 | -37.33186 | 174.19342 | 22383 ft | 411 kts | 248° |
| 2026-05-06 06:05 | -37.34237 | 174.15997 | 22795 ft | 413 kts | 249° |
| 2026-05-06 06:05 | -37.35262 | 174.12607 | 23204 ft | 415 kts | 249° |
| 2026-05-06 06:05 | -37.36282 | 174.09200 | 23599 ft | 418 kts | 249° |
| 2026-05-06 06:06 | -37.37308 | 174.05766 | 23976 ft | 420 kts | 249° |
| 2026-05-06 06:06 | -37.38342 | 174.02321 | 24346 ft | 422 kts | 249° |
| 2026-05-06 06:06 | -37.39386 | 173.98853 | 24728 ft | 424 kts | 248° |
| 2026-05-06 06:06 | -37.40436 | 173.95378 | 25073 ft | 426 kts | 248° |
| 2026-05-06 06:07 | -37.41480 | 173.91925 | 25406 ft | 428 kts | 248° |
| 2026-05-06 06:07 | -37.42539 | 173.88423 | 25751 ft | 430 kts | 248° |
| 2026-05-06 06:07 | -37.43605 | 173.84897 | 26116 ft | 431 kts | 248° |
| 2026-05-06 06:07 | -37.44671 | 173.81367 | 26441 ft | 432 kts | 248° |
| 2026-05-06 06:08 | -37.45739 | 173.77824 | 26770 ft | 434 kts | 248° |
| 2026-05-06 06:08 | -37.46810 | 173.74268 | 27083 ft | 435 kts | 248° |
| 2026-05-06 06:08 | -37.47882 | 173.70701 | 27401 ft | 436 kts | 248° |
| 2026-05-06 06:08 | -37.48957 | 173.67123 | 27693 ft | 438 kts | 248° |
| 2026-05-06 06:09 | -37.50036 | 173.63525 | 27995 ft | 439 kts | 247° |
| 2026-05-06 06:09 | -37.51114 | 173.59924 | 28289 ft | 440 kts | 247° |
| 2026-05-06 06:09 | -37.52194 | 173.56314 | 28556 ft | 441 kts | 247° |
| 2026-05-06 06:09 | -37.53276 | 173.52691 | 28819 ft | 443 kts | 247° |
| 2026-05-06 06:10 | -37.54360 | 173.49057 | 29076 ft | 444 kts | 247° |
| 2026-05-06 06:10 | -37.55444 | 173.45419 | 29418 ft | 443 kts | 247° |
| 2026-05-06 06:10 | -37.56520 | 173.41800 | 29826 ft | 440 kts | 247° |
| 2026-05-06 06:10 | -37.57590 | 173.38193 | 30219 ft | 438 kts | 247° |
| 2026-05-06 06:11 | -37.58653 | 173.34608 | 30572 ft | 436 kts | 247° |
| 2026-05-06 06:11 | -37.59716 | 173.31024 | 30892 ft | 435 kts | 247° |
| 2026-05-06 06:11 | -37.60772 | 173.27458 | 31195 ft | 435 kts | 247° |
| 2026-05-06 06:11 | -37.61827 | 173.23890 | 31554 ft | 432 kts | 247° |
| 2026-05-06 06:12 | -37.62873 | 173.20346 | 31903 ft | 430 kts | 247° |
| 2026-05-06 06:12 | -37.63916 | 173.16809 | 32234 ft | 428 kts | 247° |
| 2026-05-06 06:12 | -37.64953 | 173.13291 | 32538 ft | 427 kts | 248° |
| 2026-05-06 06:12 | -37.65986 | 173.09777 | 32805 ft | 427 kts | 248° |
| 2026-05-06 06:13 | -37.67017 | 173.06267 | 33077 ft | 426 kts | 248° |
| 2026-05-06 06:13 | -37.68045 | 173.02762 | 33365 ft | 424 kts | 248° |
| 2026-05-06 06:13 | -37.69066 | 172.99277 | 33675 ft | 422 kts | 248° |
| 2026-05-06 06:13 | -37.70083 | 172.95802 | 33932 ft | 422 kts | 248° |
| 2026-05-06 06:14 | -37.71081 | 172.92386 | 34349 ft | 416 kts | 248° |
| 2026-05-06 06:14 | -37.72075 | 172.88977 | 34702 ft | 413 kts | 248° |
| 2026-05-06 06:14 | -37.74092 | 172.82059 | 34834 ft | 420 kts | 249° |
| 2026-05-06 06:15 | -37.75088 | 172.78638 | 35062 ft | 419 kts | 249° |
| 2026-05-06 06:15 | -37.76102 | 172.75142 | 35312 ft | 418 kts | 249° |
| 2026-05-06 06:15 | -37.77088 | 172.71740 | 35495 ft | 418 kts | 249° |
| 2026-05-06 06:15 | -37.78088 | 172.68284 | 35628 ft | 420 kts | 249° |
| 2026-05-06 06:16 | -37.79092 | 172.64813 | 35756 ft | 421 kts | 249° |
| 2026-05-06 06:16 | -37.80096 | 172.61341 | 35963 ft | 420 kts | 249° |
| 2026-05-06 06:16 | -37.81095 | 172.57876 | 36169 ft | 419 kts | 249° |
| 2026-05-06 06:16 | -37.82093 | 172.54416 | 36288 ft | 419 kts | 249° |
| 2026-05-06 06:17 | -37.84093 | 172.47459 | 36327 ft | 422 kts | 249° |
| 2026-05-06 06:17 | -37.86097 | 172.40475 | 36329 ft | 422 kts | 249° |
| 2026-05-06 06:18 | -37.88094 | 172.33489 | 36330 ft | 422 kts | 249° |
| 2026-05-06 06:18 | -37.90089 | 172.26501 | 36334 ft | 422 kts | 249° |
| 2026-05-06 06:19 | -37.92078 | 172.19509 | 36332 ft | 421 kts | 249° |
| 2026-05-06 06:19 | -37.94058 | 172.12533 | 36332 ft | 420 kts | 249° |
| 2026-05-06 06:20 | -37.96032 | 172.05559 | 36331 ft | 420 kts | 249° |
| 2026-05-06 06:20 | -37.98000 | 171.98590 | 36329 ft | 419 kts | 250° |
| 2026-05-06 06:21 | -37.99959 | 171.91630 | 36320 ft | 419 kts | 250° |
| 2026-05-06 06:21 | -38.01914 | 171.84675 | 36318 ft | 418 kts | 250° |
| 2026-05-06 06:22 | -38.03860 | 171.77727 | 36320 ft | 418 kts | 250° |
| 2026-05-06 06:22 | -38.05801 | 171.70783 | 36318 ft | 417 kts | 250° |
| 2026-05-06 06:23 | -38.07735 | 171.63842 | 36320 ft | 417 kts | 250° |
| 2026-05-06 06:23 | -38.09662 | 171.56906 | 36326 ft | 417 kts | 250° |
| 2026-05-06 06:24 | -38.11592 | 171.49943 | 36321 ft | 418 kts | 250° |
| 2026-05-06 06:24 | -38.13519 | 171.42970 | 36321 ft | 419 kts | 250° |
| 2026-05-06 06:25 | -38.15450 | 171.35971 | 36323 ft | 420 kts | 250° |
| 2026-05-06 06:26 | -38.18339 | 171.25456 | 36328 ft | 421 kts | 251° |
| 2026-05-06 06:26 | -38.20252 | 171.18470 | 36322 ft | 421 kts | 251° |
| 2026-05-06 06:27 | -38.22173 | 171.11434 | 36308 ft | 421 kts | 251° |
| 2026-05-06 06:27 | -38.24091 | 171.04395 | 36304 ft | 421 kts | 251° |
| 2026-05-06 06:28 | -38.26003 | 170.97358 | 36314 ft | 420 kts | 251° |
| 2026-05-06 06:28 | -38.27208 | 170.90114 | 36312 ft | 420 kts | 266° |
| 2026-05-06 06:29 | -38.27219 | 170.82682 | 36316 ft | 420 kts | 269° |
| 2026-05-06 06:29 | -38.27165 | 170.75258 | 36310 ft | 420 kts | 270° |
| 2026-05-06 06:30 | -38.27124 | 170.67826 | 36312 ft | 420 kts | 270° |
| 2026-05-06 06:30 | -38.27095 | 170.60398 | 36313 ft | 420 kts | 270° |
| 2026-05-06 06:31 | -38.27067 | 170.53011 | 36302 ft | 420 kts | 270° |
| 2026-05-06 06:31 | -38.27038 | 170.45582 | 36303 ft | 420 kts | 270° |
| 2026-05-06 06:32 | -38.27002 | 170.38155 | 36302 ft | 420 kts | 270° |
| 2026-05-06 06:32 | -38.26960 | 170.30725 | 36302 ft | 419 kts | 270° |
| 2026-05-06 06:33 | -38.26914 | 170.23305 | 36288 ft | 419 kts | 270° |
| 2026-05-06 06:33 | -38.26864 | 170.15886 | 36289 ft | 419 kts | 270° |
| 2026-05-06 06:34 | -38.26809 | 170.08458 | 36286 ft | 419 kts | 270° |
| 2026-05-06 06:34 | -38.26749 | 170.01040 | 36287 ft | 419 kts | 270° |
| 2026-05-06 06:35 | -38.26686 | 169.93629 | 36283 ft | 418 kts | 270° |
| 2026-05-06 06:35 | -38.26618 | 169.86230 | 36277 ft | 418 kts | 270° |
| 2026-05-06 06:36 | -38.26546 | 169.78836 | 36280 ft | 418 kts | 270° |
| 2026-05-06 06:36 | -38.26467 | 169.71441 | 36277 ft | 417 kts | 270° |
| 2026-05-06 06:37 | -38.26384 | 169.64056 | 36255 ft | 418 kts | 271° |
| 2026-05-06 06:37 | -38.26297 | 169.56668 | 36249 ft | 418 kts | 271° |
| 2026-05-06 06:38 | -38.26206 | 169.49272 | 36249 ft | 418 kts | 271° |
| 2026-05-06 06:38 | -38.26110 | 169.41929 | 36248 ft | 417 kts | 271° |
| 2026-05-06 06:39 | -38.26009 | 169.34552 | 36239 ft | 417 kts | 271° |
| 2026-05-06 06:39 | -38.25904 | 169.27178 | 36240 ft | 417 kts | 271° |
| 2026-05-06 06:40 | -38.25793 | 169.19755 | 36241 ft | 416 kts | 271° |
| 2026-05-06 06:40 | -38.25679 | 169.12447 | 36238 ft | 416 kts | 271° |
| 2026-05-06 06:41 | -38.25560 | 169.05091 | 36241 ft | 415 kts | 272° |
| 2026-05-06 06:41 | -38.25437 | 168.97746 | 36241 ft | 415 kts | 272° |
| 2026-05-06 06:42 | -38.25310 | 168.90407 | 36238 ft | 415 kts | 272° |
| 2026-05-06 06:42 | -38.25177 | 168.83073 | 36240 ft | 415 kts | 272° |
| 2026-05-06 06:43 | -38.25040 | 168.75747 | 36238 ft | 414 kts | 272° |
| 2026-05-06 06:43 | -38.24922 | 168.69606 | 36240 ft | 414 kts | 272° |
| 2026-05-06 06:44 | -38.24778 | 168.62280 | 36241 ft | 414 kts | 272° |
| 2026-05-06 06:44 | -38.24630 | 168.55004 | 36241 ft | 414 kts | 272° |
| 2026-05-06 06:45 | -38.24474 | 168.47687 | 36240 ft | 414 kts | 272° |
| 2026-05-06 06:45 | -38.24316 | 168.40364 | 36243 ft | 414 kts | 272° |
| 2026-05-06 06:46 | -38.24153 | 168.33043 | 36239 ft | 414 kts | 273° |
| 2026-05-06 06:46 | -38.23986 | 168.25722 | 36239 ft | 414 kts | 273° |
| 2026-05-06 06:47 | -38.23813 | 168.18401 | 36240 ft | 414 kts | 273° |
| 2026-05-06 06:47 | -38.23636 | 168.11084 | 36226 ft | 414 kts | 273° |
| 2026-05-06 06:48 | -38.23454 | 168.03759 | 36221 ft | 414 kts | 273° |
| 2026-05-06 06:48 | -38.23269 | 167.96434 | 36221 ft | 414 kts | 273° |
| 2026-05-06 06:49 | -38.23078 | 167.89112 | 36219 ft | 414 kts | 273° |
| 2026-05-06 06:49 | -38.22882 | 167.81785 | 36205 ft | 415 kts | 273° |
| 2026-05-06 06:50 | -38.22682 | 167.74460 | 36201 ft | 414 kts | 273° |
| 2026-05-06 06:50 | -38.22480 | 167.67189 | 36191 ft | 414 kts | 273° |
| 2026-05-06 06:51 | -38.22272 | 167.59876 | 36195 ft | 414 kts | 274° |
| 2026-05-06 06:51 | -38.22059 | 167.52571 | 36195 ft | 413 kts | 274° |
| 2026-05-06 06:52 | -38.21841 | 167.45267 | 36194 ft | 413 kts | 274° |
| 2026-05-06 06:52 | -38.21620 | 167.37976 | 36194 ft | 413 kts | 274° |
| 2026-05-06 06:53 | -38.21393 | 167.30683 | 36188 ft | 412 kts | 274° |
| 2026-05-06 06:53 | -38.21162 | 167.23395 | 36183 ft | 412 kts | 274° |
| 2026-05-06 06:54 | -38.20928 | 167.16123 | 36187 ft | 412 kts | 274° |
| 2026-05-06 06:54 | -38.20689 | 167.08849 | 36183 ft | 411 kts | 274° |
| 2026-05-06 06:55 | -38.20447 | 167.01587 | 36186 ft | 411 kts | 274° |
| 2026-05-06 06:55 | -38.20199 | 166.94329 | 36183 ft | 411 kts | 274° |
| 2026-05-06 06:56 | -38.19947 | 166.87061 | 36174 ft | 411 kts | 275° |
| 2026-05-06 06:56 | -38.19690 | 166.79800 | 36175 ft | 411 kts | 275° |
| 2026-05-06 06:57 | -38.19427 | 166.72539 | 36176 ft | 411 kts | 275° |
| 2026-05-06 06:57 | -38.19163 | 166.65282 | 36175 ft | 411 kts | 275° |
| 2026-05-06 06:58 | -38.18894 | 166.58041 | 36171 ft | 410 kts | 275° |
| 2026-05-06 06:58 | -38.18622 | 166.50792 | 36173 ft | 410 kts | 275° |
| 2026-05-06 06:59 | -38.18345 | 166.43544 | 36168 ft | 411 kts | 275° |
| 2026-05-06 06:59 | -38.18063 | 166.36331 | 36166 ft | 411 kts | 275° |
| 2026-05-06 07:00 | -38.17775 | 166.29079 | 36166 ft | 411 kts | 275° |
| 2026-05-06 07:00 | -38.17483 | 166.21821 | 36168 ft | 411 kts | 275° |
| 2026-05-06 07:01 | -38.17185 | 166.14568 | 36166 ft | 411 kts | 275° |
| 2026-05-06 07:01 | -38.16883 | 166.07309 | 36165 ft | 412 kts | 275° |
| 2026-05-06 07:02 | -38.16579 | 166.00047 | 36156 ft | 412 kts | 275° |
| 2026-05-06 07:02 | -38.16267 | 165.92781 | 36158 ft | 412 kts | 275° |
| 2026-05-06 07:03 | -38.15952 | 165.85505 | 36156 ft | 412 kts | 275° |
| 2026-05-06 07:03 | -38.15633 | 165.78242 | 36156 ft | 412 kts | 275° |
| 2026-05-06 07:04 | -38.15307 | 165.70964 | 36158 ft | 412 kts | 275° |
| 2026-05-06 07:04 | -38.14978 | 165.63690 | 36154 ft | 412 kts | 276° |
| 2026-05-06 07:05 | -38.14646 | 165.56415 | 36158 ft | 413 kts | 276° |
| 2026-05-06 07:05 | -38.14307 | 165.49127 | 36157 ft | 413 kts | 276° |
| 2026-05-06 07:06 | -38.13965 | 165.41857 | 36149 ft | 412 kts | 276° |
| 2026-05-06 07:06 | -38.13618 | 165.34578 | 36131 ft | 413 kts | 276° |
| 2026-05-06 07:07 | -38.13265 | 165.27285 | 36094 ft | 414 kts | 276° |
| 2026-05-06 07:07 | -38.12908 | 165.19986 | 36080 ft | 414 kts | 276° |
| 2026-05-06 07:08 | -38.12545 | 165.12683 | 36084 ft | 414 kts | 276° |
| 2026-05-06 07:08 | -38.12178 | 165.05391 | 36082 ft | 414 kts | 277° |
| 2026-05-06 07:09 | -38.11805 | 164.98084 | 36085 ft | 414 kts | 277° |
| 2026-05-06 07:09 | -38.11431 | 164.90793 | 36074 ft | 414 kts | 277° |
| 2026-05-06 07:10 | -38.11052 | 164.83496 | 36074 ft | 414 kts | 277° |
| 2026-05-06 07:10 | -38.10666 | 164.76193 | 36073 ft | 415 kts | 277° |
| 2026-05-06 07:11 | -38.10276 | 164.68928 | 36074 ft | 415 kts | 277° |
| 2026-05-06 07:11 | -38.09883 | 164.61609 | 36074 ft | 416 kts | 277° |
| 2026-05-06 07:12 | -38.09484 | 164.54277 | 36074 ft | 417 kts | 277° |
| 2026-05-06 07:12 | -38.09079 | 164.46934 | 36074 ft | 417 kts | 277° |
| 2026-05-06 07:13 | -38.08669 | 164.39580 | 36074 ft | 418 kts | 278° |
| 2026-05-06 07:13 | -38.08253 | 164.32211 | 36075 ft | 419 kts | 278° |
| 2026-05-06 07:14 | -38.07831 | 164.24820 | 36074 ft | 420 kts | 278° |
| 2026-05-06 07:14 | -38.07403 | 164.17422 | 36073 ft | 421 kts | 278° |
| 2026-05-06 07:15 | -38.06969 | 164.09962 | 36078 ft | 421 kts | 278° |
| 2026-05-06 07:15 | -38.06532 | 164.02546 | 36073 ft | 422 kts | 278° |
| 2026-05-06 07:16 | -38.06093 | 163.95171 | 36075 ft | 422 kts | 278° |
| 2026-05-06 07:16 | -38.05642 | 163.87695 | 36074 ft | 422 kts | 278° |
| 2026-05-06 07:17 | -38.05192 | 163.80312 | 36076 ft | 422 kts | 278° |
| 2026-05-06 07:17 | -38.04734 | 163.72889 | 36072 ft | 422 kts | 278° |
| 2026-05-06 07:18 | -38.04274 | 163.65479 | 36074 ft | 421 kts | 278° |
| 2026-05-06 07:18 | -38.03809 | 163.58072 | 36066 ft | 421 kts | 278° |
| 2026-05-06 07:19 | -38.03340 | 163.50681 | 36061 ft | 420 kts | 278° |
| 2026-05-06 07:19 | -38.02867 | 163.43299 | 36063 ft | 420 kts | 279° |
| 2026-05-06 07:20 | -38.02390 | 163.35919 | 36068 ft | 419 kts | 279° |
| 2026-05-06 07:20 | -38.01908 | 163.28547 | 36058 ft | 419 kts | 279° |
| 2026-05-06 07:21 | -38.01422 | 163.21184 | 36065 ft | 419 kts | 279° |
| 2026-05-06 07:21 | -38.00933 | 163.13824 | 36061 ft | 419 kts | 279° |
| 2026-05-06 07:22 | -38.00436 | 163.06450 | 36065 ft | 420 kts | 279° |
| 2026-05-06 07:22 | -37.99795 | 162.99118 | 36055 ft | 416 kts | 287° |
| 2026-05-06 07:23 | -37.98129 | 162.92138 | 36063 ft | 414 kts | 291° |
| 2026-05-06 07:23 | -37.96375 | 162.85163 | 36068 ft | 417 kts | 291° |
| 2026-05-06 07:24 | -37.94623 | 162.78133 | 36068 ft | 420 kts | 291° |
| 2026-05-06 07:24 | -37.93164 | 162.72249 | 36065 ft | 422 kts | 291° |
| 2026-05-06 07:25 | -37.91402 | 162.65147 | 36068 ft | 423 kts | 292° |
| 2026-05-06 07:25 | -37.89635 | 162.58011 | 36061 ft | 426 kts | 291° |
| 2026-05-06 07:26 | -37.87869 | 162.50860 | 36065 ft | 424 kts | 292° |
| 2026-05-06 07:26 | -37.86040 | 162.43773 | 36067 ft | 422 kts | 292° |
| 2026-05-06 07:27 | -37.84273 | 162.36693 | 36061 ft | 422 kts | 292° |
| 2026-05-06 07:27 | -37.82511 | 162.29577 | 36066 ft | 423 kts | 292° |
| 2026-05-06 07:28 | -37.80713 | 162.22502 | 36059 ft | 421 kts | 292° |
| 2026-05-06 07:28 | -37.78048 | 162.11922 | 36052 ft | 420 kts | 293° |
| 2026-05-06 07:29 | -37.76267 | 162.04899 | 36052 ft | 419 kts | 293° |
| 2026-05-06 07:29 | -37.74497 | 161.97946 | 36065 ft | 418 kts | 293° |
| 2026-05-06 07:30 | -37.72711 | 161.90956 | 36059 ft | 418 kts | 293° |
| 2026-05-06 07:30 | -37.70919 | 161.83964 | 36058 ft | 418 kts | 293° |
| 2026-05-06 07:31 | -37.69125 | 161.76981 | 36053 ft | 418 kts | 293° |
| 2026-05-06 07:31 | -37.67325 | 161.69988 | 36062 ft | 419 kts | 293° |
| 2026-05-06 07:32 | -37.65520 | 161.62998 | 36055 ft | 419 kts | 293° |
| 2026-05-06 07:32 | -37.63707 | 161.55996 | 36060 ft | 420 kts | 292° |
| 2026-05-06 07:33 | -37.61886 | 161.48980 | 36058 ft | 421 kts | 292° |
| 2026-05-06 07:33 | -37.60059 | 161.41968 | 36054 ft | 421 kts | 292° |
| 2026-05-06 07:34 | -37.58228 | 161.34952 | 36055 ft | 421 kts | 292° |
| 2026-05-06 07:34 | -37.56391 | 161.27942 | 36059 ft | 421 kts | 292° |
| 2026-05-06 07:35 | -37.54555 | 161.20943 | 36050 ft | 420 kts | 292° |
| 2026-05-06 07:35 | -37.52717 | 161.13955 | 36056 ft | 420 kts | 292° |
| 2026-05-06 07:36 | -37.50874 | 161.06975 | 36053 ft | 420 kts | 292° |
| 2026-05-06 07:36 | -37.49027 | 161.00005 | 36041 ft | 419 kts | 292° |
| 2026-05-06 07:37 | -37.47184 | 160.93065 | 36049 ft | 418 kts | 292° |
| 2026-05-06 07:37 | -37.45339 | 160.86136 | 36050 ft | 417 kts | 291° |
| 2026-05-06 07:38 | -37.43505 | 160.79261 | 36044 ft | 417 kts | 292° |
| 2026-05-06 07:38 | -37.41658 | 160.72356 | 36041 ft | 416 kts | 291° |
| 2026-05-06 07:39 | -37.39809 | 160.65459 | 36044 ft | 416 kts | 291° |
| 2026-05-06 07:39 | -37.37953 | 160.58560 | 36053 ft | 416 kts | 291° |
| 2026-05-06 07:40 | -37.36092 | 160.51666 | 36042 ft | 416 kts | 291° |
| 2026-05-06 07:40 | -37.34228 | 160.44779 | 36045 ft | 417 kts | 291° |
| 2026-05-06 07:41 | -37.32358 | 160.37884 | 36043 ft | 417 kts | 291° |
| 2026-05-06 07:41 | -37.30481 | 160.30976 | 36054 ft | 418 kts | 291° |
| 2026-05-06 07:42 | -37.28599 | 160.24067 | 36045 ft | 418 kts | 291° |
| 2026-05-06 07:42 | -37.26714 | 160.17169 | 36044 ft | 418 kts | 291° |
| 2026-05-06 07:43 | -37.24823 | 160.10269 | 36043 ft | 418 kts | 291° |
| 2026-05-06 07:43 | -37.22934 | 160.03384 | 36043 ft | 417 kts | 291° |
| 2026-05-06 07:44 | -37.21038 | 159.96501 | 36042 ft | 417 kts | 291° |
| 2026-05-06 07:44 | -37.19138 | 159.89626 | 36044 ft | 416 kts | 291° |
| 2026-05-06 07:45 | -37.17250 | 159.82808 | 36043 ft | 416 kts | 291° |
| 2026-05-06 07:45 | -37.15346 | 159.75952 | 36051 ft | 416 kts | 291° |
| 2026-05-06 07:46 | -37.13441 | 159.69105 | 36043 ft | 416 kts | 291° |
| 2026-05-06 07:46 | -37.11530 | 159.62260 | 36044 ft | 416 kts | 291° |
| 2026-05-06 07:47 | -37.09620 | 159.55432 | 36051 ft | 415 kts | 291° |
| 2026-05-06 07:47 | -37.07707 | 159.48609 | 36048 ft | 415 kts | 291° |
| 2026-05-06 07:48 | -37.05789 | 159.41790 | 36044 ft | 415 kts | 291° |
| 2026-05-06 07:48 | -37.03866 | 159.34971 | 36040 ft | 415 kts | 291° |
| 2026-05-06 07:49 | -37.01942 | 159.28157 | 36046 ft | 415 kts | 291° |
| 2026-05-06 07:49 | -37.00017 | 159.21364 | 36049 ft | 415 kts | 291° |
| 2026-05-06 07:50 | -36.98085 | 159.14563 | 36052 ft | 414 kts | 291° |
| 2026-05-06 07:50 | -36.96153 | 159.07778 | 36032 ft | 414 kts | 291° |
| 2026-05-06 07:51 | -36.94218 | 159.01001 | 36035 ft | 414 kts | 291° |
| 2026-05-06 07:51 | -36.92279 | 158.94222 | 36038 ft | 414 kts | 291° |
| 2026-05-06 07:52 | -36.90338 | 158.87457 | 36036 ft | 414 kts | 291° |
| 2026-05-06 07:52 | -36.88391 | 158.80687 | 36034 ft | 414 kts | 291° |
| 2026-05-06 07:53 | -36.86439 | 158.73919 | 36040 ft | 414 kts | 291° |
| 2026-05-06 07:53 | -36.84485 | 158.67156 | 36044 ft | 414 kts | 291° |
| 2026-05-06 07:54 | -36.82525 | 158.60392 | 36035 ft | 414 kts | 291° |
| 2026-05-06 07:54 | -36.80572 | 158.53674 | 36036 ft | 414 kts | 291° |
| 2026-05-06 07:55 | -36.78605 | 158.46917 | 36036 ft | 414 kts | 291° |
| 2026-05-06 07:55 | -36.76640 | 158.40176 | 36036 ft | 413 kts | 291° |
| 2026-05-06 07:56 | -36.74668 | 158.33437 | 36036 ft | 413 kts | 292° |
| 2026-05-06 07:56 | -36.72693 | 158.26707 | 36037 ft | 413 kts | 291° |
| 2026-05-06 07:57 | -36.70713 | 158.19970 | 36028 ft | 414 kts | 291° |
| 2026-05-06 07:57 | -36.68730 | 158.13241 | 36029 ft | 414 kts | 292° |
| 2026-05-06 07:58 | -36.66741 | 158.06510 | 36027 ft | 414 kts | 291° |
| 2026-05-06 07:58 | -36.64750 | 157.99790 | 36026 ft | 414 kts | 291° |
| 2026-05-06 07:59 | -36.62756 | 157.93076 | 36028 ft | 413 kts | 291° |
| 2026-05-06 07:59 | -36.60758 | 157.86361 | 36029 ft | 413 kts | 291° |
| 2026-05-06 08:00 | -36.58756 | 157.79647 | 36028 ft | 413 kts | 291° |
| 2026-05-06 08:00 | -36.56751 | 157.72945 | 36027 ft | 414 kts | 291° |
| 2026-05-06 08:01 | -36.54743 | 157.66243 | 36031 ft | 414 kts | 291° |
| 2026-05-06 08:01 | -36.52728 | 157.59538 | 36026 ft | 414 kts | 291° |
| 2026-05-06 08:02 | -36.50710 | 157.52843 | 36028 ft | 414 kts | 292° |
| 2026-05-06 08:02 | -36.48692 | 157.46154 | 36029 ft | 414 kts | 292° |
| 2026-05-06 08:03 | -36.46669 | 157.39464 | 36028 ft | 414 kts | 292° |
| 2026-05-06 08:03 | -36.44639 | 157.32770 | 36027 ft | 414 kts | 292° |
| 2026-05-06 08:04 | -36.42612 | 157.26109 | 36026 ft | 414 kts | 292° |
| 2026-05-06 08:04 | -36.40571 | 157.19415 | 36028 ft | 415 kts | 292° |
| 2026-05-06 08:05 | -36.38523 | 157.12713 | 36028 ft | 415 kts | 292° |
| 2026-05-06 08:05 | -36.36474 | 157.06021 | 36031 ft | 415 kts | 292° |
| 2026-05-06 08:06 | -36.34426 | 156.99344 | 36037 ft | 415 kts | 292° |
| 2026-05-06 08:06 | -36.32371 | 156.92663 | 36045 ft | 415 kts | 292° |
| 2026-05-06 08:07 | -36.30310 | 156.85978 | 36037 ft | 415 kts | 292° |
| 2026-05-06 08:07 | -36.28245 | 156.79299 | 36035 ft | 415 kts | 292° |
| 2026-05-06 08:08 | -36.26526 | 156.73749 | 36035 ft | 415 kts | 292° |
| 2026-05-06 08:08 | -36.24114 | 156.65980 | 36044 ft | 415 kts | 292° |
| 2026-05-06 08:09 | -36.22373 | 156.60386 | 36035 ft | 415 kts | 292° |
| 2026-05-06 08:09 | -36.20297 | 156.53729 | 36034 ft | 415 kts | 292° |
| 2026-05-06 08:10 | -36.18216 | 156.47069 | 36037 ft | 414 kts | 292° |
| 2026-05-06 08:10 | -36.16135 | 156.40424 | 36046 ft | 414 kts | 292° |
| 2026-05-06 08:11 | -36.14062 | 156.33823 | 36037 ft | 414 kts | 292° |
| 2026-05-06 08:11 | -36.11975 | 156.27189 | 36035 ft | 414 kts | 292° |
| 2026-05-06 08:12 | -36.09885 | 156.20565 | 36037 ft | 413 kts | 292° |
| 2026-05-06 08:12 | -36.07792 | 156.13944 | 36035 ft | 413 kts | 292° |
| 2026-05-06 08:13 | -36.05698 | 156.07335 | 36035 ft | 412 kts | 292° |
| 2026-05-06 08:13 | -36.03604 | 156.00743 | 36036 ft | 412 kts | 292° |
| 2026-05-06 08:14 | -36.01506 | 155.94150 | 36048 ft | 412 kts | 292° |
| 2026-05-06 08:14 | -35.99404 | 155.87565 | 36035 ft | 412 kts | 292° |
| 2026-05-06 08:15 | -35.97298 | 155.80977 | 36035 ft | 412 kts | 292° |
| 2026-05-06 08:15 | -35.95191 | 155.74400 | 36036 ft | 412 kts | 292° |
| 2026-05-06 08:16 | -35.93080 | 155.67827 | 36046 ft | 412 kts | 292° |
| 2026-05-06 08:16 | -35.90963 | 155.61250 | 36037 ft | 412 kts | 292° |
| 2026-05-06 08:17 | -35.88844 | 155.54682 | 36035 ft | 412 kts | 292° |
| 2026-05-06 08:17 | -35.86720 | 155.48112 | 36035 ft | 412 kts | 292° |
| 2026-05-06 08:18 | -35.84596 | 155.41555 | 36034 ft | 412 kts | 292° |
| 2026-05-06 08:18 | -35.82468 | 155.35003 | 36038 ft | 412 kts | 292° |
| 2026-05-06 08:19 | -35.80337 | 155.28455 | 36037 ft | 412 kts | 292° |
| 2026-05-06 08:19 | -35.78200 | 155.21902 | 36048 ft | 412 kts | 292° |
| 2026-05-06 08:20 | -35.76057 | 155.15344 | 36036 ft | 412 kts | 292° |
| 2026-05-06 08:20 | -35.73911 | 155.08793 | 36034 ft | 412 kts | 292° |
| 2026-05-06 08:21 | -35.71763 | 155.02250 | 36034 ft | 412 kts | 292° |
| 2026-05-06 08:21 | -35.69626 | 154.95752 | 36052 ft | 412 kts | 292° |
| 2026-05-06 08:22 | -35.67472 | 154.89223 | 36042 ft | 412 kts | 292° |
| 2026-05-06 08:22 | -35.65314 | 154.82695 | 36043 ft | 412 kts | 292° |
| 2026-05-06 08:23 | -35.63152 | 154.76161 | 36041 ft | 412 kts | 292° |
| 2026-05-06 08:23 | -35.60845 | 154.69711 | 36034 ft | 413 kts | 299° |
| 2026-05-06 08:24 | -35.57441 | 154.64027 | 36057 ft | 414 kts | 309° |
| 2026-05-06 08:24 | -35.53658 | 154.58677 | 36046 ft | 415 kts | 309° |
| 2026-05-06 08:25 | -35.49870 | 154.53310 | 36056 ft | 416 kts | 309° |
| 2026-05-06 08:25 | -35.46112 | 154.47962 | 36043 ft | 416 kts | 309° |
| 2026-05-06 08:26 | -35.42329 | 154.42571 | 36048 ft | 417 kts | 309° |
| 2026-05-06 08:26 | -35.38546 | 154.37182 | 36051 ft | 417 kts | 309° |
| 2026-05-06 08:27 | -35.34758 | 154.31798 | 36074 ft | 417 kts | 309° |
| 2026-05-06 08:27 | -35.30973 | 154.26426 | 36084 ft | 417 kts | 309° |
| 2026-05-06 08:28 | -35.27181 | 154.21050 | 36082 ft | 416 kts | 309° |
| 2026-05-06 08:28 | -35.23395 | 154.15697 | 36086 ft | 416 kts | 309° |
| 2026-05-06 08:29 | -35.19615 | 154.10356 | 36079 ft | 415 kts | 309° |
| 2026-05-06 08:29 | -35.15842 | 154.05035 | 36084 ft | 414 kts | 309° |
| 2026-05-06 08:30 | -35.12071 | 153.99724 | 36082 ft | 413 kts | 309° |
| 2026-05-06 08:30 | -35.08303 | 153.94427 | 36081 ft | 412 kts | 309° |
| 2026-05-06 08:31 | -35.04542 | 153.89145 | 36081 ft | 412 kts | 309° |
| 2026-05-06 08:31 | -35.00805 | 153.83905 | 36085 ft | 411 kts | 309° |
| 2026-05-06 08:32 | -34.97048 | 153.78647 | 36082 ft | 411 kts | 308° |
| 2026-05-06 08:32 | -34.93270 | 153.73366 | 36082 ft | 410 kts | 308° |
| 2026-05-06 08:33 | -34.89543 | 153.68165 | 36081 ft | 410 kts | 308° |
| 2026-05-06 08:33 | -34.85791 | 153.62937 | 36081 ft | 409 kts | 308° |
| 2026-05-06 08:34 | -34.80174 | 153.55125 | 36086 ft | 408 kts | 308° |
| 2026-05-06 08:35 | -34.76431 | 153.49930 | 36081 ft | 408 kts | 308° |
| 2026-05-06 08:35 | -34.72692 | 153.44748 | 36084 ft | 408 kts | 308° |
| 2026-05-06 08:36 | -34.68949 | 153.39566 | 36086 ft | 407 kts | 308° |
| 2026-05-06 08:36 | -34.65208 | 153.34395 | 36080 ft | 407 kts | 308° |
| 2026-05-06 08:37 | -34.61456 | 153.29219 | 36083 ft | 408 kts | 309° |
| 2026-05-06 08:37 | -34.57702 | 153.24047 | 36083 ft | 407 kts | 309° |
| 2026-05-06 08:38 | -34.53955 | 153.18891 | 36086 ft | 407 kts | 309° |
| 2026-05-06 08:38 | -34.50188 | 153.13713 | 35567 ft | 414 kts | 309° |
| 2026-05-06 08:38 | -34.48282 | 153.11095 | 34947 ft | 413 kts | 309° |
| 2026-05-06 08:39 | -34.46382 | 153.08490 | 34284 ft | 413 kts | 309° |
| 2026-05-06 08:39 | -34.44500 | 153.05911 | 33592 ft | 413 kts | 309° |
| 2026-05-06 08:39 | -34.42595 | 153.03304 | 32869 ft | 414 kts | 309° |
| 2026-05-06 08:39 | -34.40687 | 153.00694 | 32284 ft | 412 kts | 309° |
| 2026-05-06 08:40 | -34.38802 | 152.98119 | 31763 ft | 408 kts | 309° |
| 2026-05-06 08:40 | -34.36927 | 152.95559 | 31248 ft | 404 kts | 309° |
| 2026-05-06 08:40 | -34.35064 | 152.93018 | 30735 ft | 401 kts | 309° |
| 2026-05-06 08:40 | -34.33220 | 152.90502 | 30229 ft | 398 kts | 309° |
| 2026-05-06 08:41 | -34.31390 | 152.88007 | 29727 ft | 394 kts | 309° |
| 2026-05-06 08:41 | -34.29578 | 152.85538 | 29221 ft | 391 kts | 309° |
| 2026-05-06 08:41 | -34.27779 | 152.83088 | 28709 ft | 388 kts | 309° |
| 2026-05-06 08:41 | -34.25991 | 152.80655 | 28204 ft | 385 kts | 309° |
| 2026-05-06 08:42 | -34.24217 | 152.78242 | 27700 ft | 382 kts | 309° |
| 2026-05-06 08:42 | -34.22454 | 152.75847 | 27199 ft | 380 kts | 309° |
| 2026-05-06 08:42 | -34.20704 | 152.73471 | 26702 ft | 377 kts | 309° |
| 2026-05-06 08:42 | -34.18966 | 152.71112 | 26207 ft | 375 kts | 310° |
| 2026-05-06 08:43 | -34.17239 | 152.68770 | 25715 ft | 372 kts | 309° |
| 2026-05-06 08:43 | -34.15522 | 152.66442 | 25225 ft | 370 kts | 309° |
| 2026-05-06 08:43 | -34.13815 | 152.64131 | 24741 ft | 368 kts | 309° |
| 2026-05-06 08:43 | -34.12120 | 152.61837 | 24257 ft | 365 kts | 310° |
| 2026-05-06 08:44 | -34.10442 | 152.59543 | 23775 ft | 362 kts | 307° |
| 2026-05-06 08:44 | -34.09106 | 152.56998 | 23301 ft | 358 kts | 295° |
| 2026-05-06 08:44 | -34.08164 | 152.54253 | 22548 ft | 362 kts | 287° |
| 2026-05-06 08:44 | -34.07643 | 152.51288 | 21997 ft | 362 kts | 278° |
| 2026-05-06 08:45 | -34.07352 | 152.48276 | 21505 ft | 359 kts | 277° |
| 2026-05-06 08:45 | -34.07094 | 152.45290 | 21029 ft | 356 kts | 276° |
| 2026-05-06 08:45 | -34.06840 | 152.42334 | 20565 ft | 353 kts | 277° |
| 2026-05-06 08:45 | -34.06581 | 152.39402 | 20109 ft | 350 kts | 277° |
| 2026-05-06 08:46 | -34.06317 | 152.36497 | 19661 ft | 346 kts | 277° |
| 2026-05-06 08:46 | -34.06050 | 152.33624 | 19219 ft | 343 kts | 277° |
| 2026-05-06 08:46 | -34.05782 | 152.30774 | 18790 ft | 340 kts | 277° |
| 2026-05-06 08:46 | -34.05515 | 152.27953 | 18313 ft | 339 kts | 277° |
| 2026-05-06 08:47 | -34.05247 | 152.25145 | 17922 ft | 334 kts | 277° |
| 2026-05-06 08:47 | -34.04982 | 152.22374 | 17495 ft | 331 kts | 277° |
| 2026-05-06 08:47 | -34.04721 | 152.19658 | 17074 ft | 329 kts | 277° |
| 2026-05-06 08:47 | -34.04458 | 152.16926 | 16606 ft | 328 kts | 277° |
| 2026-05-06 08:48 | -34.04197 | 152.14208 | 16157 ft | 326 kts | 277° |
| 2026-05-06 08:48 | -34.03937 | 152.11519 | 15803 ft | 322 kts | 277° |
| 2026-05-06 08:48 | -34.03678 | 152.08844 | 15383 ft | 320 kts | 277° |
| 2026-05-06 08:48 | -34.03419 | 152.06180 | 14841 ft | 322 kts | 277° |
| 2026-05-06 08:49 | -34.03154 | 152.03530 | 14501 ft | 317 kts | 277° |
| 2026-05-06 08:49 | -34.02889 | 152.00893 | 14098 ft | 315 kts | 277° |
| 2026-05-06 08:49 | -34.02627 | 151.98290 | 13750 ft | 311 kts | 277° |
| 2026-05-06 08:49 | -34.02365 | 151.95687 | 13270 ft | 312 kts | 277° |
| 2026-05-06 08:50 | -34.02103 | 151.93095 | 12871 ft | 311 kts | 277° |
| 2026-05-06 08:50 | -34.01843 | 151.90513 | 12470 ft | 309 kts | 277° |
| 2026-05-06 08:50 | -34.01583 | 151.87943 | 12063 ft | 308 kts | 277° |
| 2026-05-06 08:50 | -34.01323 | 151.85381 | 11657 ft | 307 kts | 277° |
| 2026-05-06 08:51 | -34.01064 | 151.82830 | 11252 ft | 307 kts | 277° |
| 2026-05-06 08:51 | -34.00803 | 151.80279 | 10857 ft | 306 kts | 277° |
| 2026-05-06 08:51 | -34.00547 | 151.77773 | 10713 ft | 297 kts | 277° |
| 2026-05-06 08:51 | -34.00295 | 151.75317 | 10569 ft | 293 kts | 277° |
| 2026-05-06 08:52 | -34.00049 | 151.72917 | 10403 ft | 291 kts | 277° |
| 2026-05-06 08:52 | -33.99802 | 151.70513 | 10263 ft | 287 kts | 277° |
| 2026-05-06 08:52 | -33.99560 | 151.68161 | 10126 ft | 278 kts | 277° |
| 2026-05-06 08:52 | -33.99326 | 151.65889 | 10000 ft | 269 kts | 277° |
| 2026-05-06 08:53 | -33.99170 | 151.64382 | 9807 ft | 268 kts | 277° |
| 2026-05-06 08:53 | -33.98866 | 151.61444 | 9442 ft | 266 kts | 277° |
| 2026-05-06 08:53 | -33.98714 | 151.59983 | 9251 ft | 264 kts | 277° |
| 2026-05-06 08:53 | -33.98486 | 151.57792 | 8981 ft | 263 kts | 277° |
| 2026-05-06 08:54 | -33.98259 | 151.55617 | 8753 ft | 261 kts | 277° |
| 2026-05-06 08:54 | -33.98033 | 151.53445 | 8518 ft | 262 kts | 277° |
| 2026-05-06 08:54 | -33.97806 | 151.51268 | 8288 ft | 262 kts | 277° |
| 2026-05-06 08:54 | -33.97579 | 151.49087 | 8048 ft | 262 kts | 277° |
| 2026-05-06 08:55 | -33.97351 | 151.46910 | 7813 ft | 261 kts | 277° |
| 2026-05-06 08:55 | -33.97124 | 151.44741 | 7589 ft | 260 kts | 278° |
| 2026-05-06 08:55 | -33.96913 | 151.42581 | 7348 ft | 259 kts | 272° |
| 2026-05-06 08:55 | -33.97260 | 151.40466 | 7106 ft | 261 kts | 245° |
| 2026-05-06 08:56 | -33.98397 | 151.38778 | 6885 ft | 263 kts | 218° |
| 2026-05-06 08:56 | -34.00060 | 151.37859 | 6657 ft | 266 kts | 193° |
| 2026-05-06 08:56 | -34.01904 | 151.37671 | 6434 ft | 267 kts | 183° |
| 2026-05-06 08:56 | -34.03762 | 151.37629 | 6188 ft | 268 kts | 182° |
| 2026-05-06 08:57 | -34.05625 | 151.37597 | 5941 ft | 268 kts | 182° |
| 2026-05-06 08:57 | -34.07493 | 151.37557 | 5701 ft | 269 kts | 183° |
| 2026-05-06 08:57 | -34.09365 | 151.37505 | 5461 ft | 269 kts | 182° |
| 2026-05-06 08:57 | -34.11231 | 151.37448 | 5220 ft | 268 kts | 182° |
| 2026-05-06 08:58 | -34.13098 | 151.37388 | 4979 ft | 267 kts | 182° |
| 2026-05-06 08:58 | -34.14950 | 151.37317 | 4740 ft | 266 kts | 186° |
| 2026-05-06 08:58 | -34.16656 | 151.36634 | 4485 ft | 262 kts | 216° |
| 2026-05-06 08:58 | -34.17857 | 151.34999 | 4259 ft | 257 kts | 245° |
| 2026-05-06 08:59 | -34.18328 | 151.32944 | 4052 ft | 253 kts | 267° |
| 2026-05-06 08:59 | -34.18322 | 151.30870 | 3909 ft | 244 kts | 273° |
| 2026-05-06 08:59 | -34.18231 | 151.28885 | 3826 ft | 229 kts | 274° |
| 2026-05-06 08:59 | -34.18127 | 151.27033 | 3725 ft | 214 kts | 280° |
| 2026-05-06 09:00 | -34.17534 | 151.25491 | 3574 ft | 197 kts | 317° |
| 2026-05-06 09:00 | -34.16383 | 151.24779 | 3451 ft | 181 kts | 343° |
| 2026-05-06 09:00 | -34.15149 | 151.24273 | 3038 ft | 188 kts | 342° |
| 2026-05-06 09:00 | -34.13903 | 151.23820 | 2781 ft | 184 kts | 346° |
| 2026-05-06 09:01 | -34.12685 | 151.23446 | 2595 ft | 177 kts | 348° |
| 2026-05-06 09:01 | -34.11505 | 151.23127 | 2427 ft | 171 kts | 349° |
| 2026-05-06 09:01 | -34.10338 | 151.22821 | 2300 ft | 173 kts | 349° |
| 2026-05-06 09:01 | -34.09153 | 151.22514 | 2147 ft | 174 kts | 349° |
| 2026-05-06 09:02 | -34.07973 | 151.22207 | 1984 ft | 173 kts | 349° |
| 2026-05-06 09:02 | -34.06796 | 151.21902 | 1847 ft | 172 kts | 349° |
| 2026-05-06 09:02 | -34.05667 | 151.21609 | 1724 ft | 160 kts | 349° |
| 2026-05-06 09:02 | -34.04611 | 151.21335 | 1561 ft | 150 kts | 349° |
| 2026-05-06 09:03 | -34.03607 | 151.21075 | 1369 ft | 146 kts | 349° |
| 2026-05-06 09:03 | -34.02614 | 151.20818 | 1189 ft | 147 kts | 349° |
| 2026-05-06 09:03 | -34.01632 | 151.20564 | 997 ft | 145 kts | 349° |
| 2026-05-06 09:03 | -34.00652 | 151.20309 | 796 ft | 143 kts | 349° |
| 2026-05-06 09:04 | -33.99683 | 151.20057 | 619 ft | 143 kts | 349° |
| 2026-05-06 09:04 | -33.98706 | 151.19807 | 412 ft | 144 kts | 349° |
| 2026-05-06 09:04 | -33.97725 | 151.19548 | 194 ft | 143 kts | 349° |
| 2026-05-06 09:04 | -33.96762 | 151.19297 | 34 ft | 138 kts | 349° |
| 2026-05-06 09:05 | -33.95971 | 151.19090 | 27 ft | 80 kts | 348° |
| 2026-05-06 09:05 | -33.95585 | 151.18990 | 26 ft | 44 kts | 348° |
| 2026-05-06 09:05 | -33.95386 | 151.18911 | 25 ft | 24 kts | 335° |
| 2026-05-06 09:05 | -33.95270 | 151.18828 | 28 ft | 16 kts | 326° |
| 2026-05-06 09:06 | -33.95210 | 151.18761 | 28 ft | 10 kts | 316° |
| 2026-05-06 09:06 | -33.95131 | 151.18673 | 29 ft | 19 kts | 319° |
| 2026-05-06 09:06 | -33.95091 | 151.18566 | 29 ft | 18 kts | 263° |
| 2026-05-06 09:06 | -33.95117 | 151.18416 | 29 ft | 19 kts | 257° |
| 2026-05-06 09:07 | -33.95145 | 151.18265 | 29 ft | 18 kts | 257° |
| 2026-05-06 09:07 | -33.95161 | 151.18173 | 29 ft | 2 kts | 257° |
| 2026-05-06 09:07 | -33.95173 | 151.18100 | 29 ft | 11 kts | 258° |
| 2026-05-06 09:07 | -33.95174 | 151.18089 | 29 ft | 0 kts | 258° |
| 2026-05-06 09:08 | -33.95179 | 151.18062 | 29 ft | 11 kts | 256° |
| 2026-05-06 09:08 | -33.95206 | 151.17925 | 29 ft | 21 kts | 258° |
| 2026-05-06 09:08 | -33.95239 | 151.17743 | 28 ft | 24 kts | 258° |
| 2026-05-06 09:08 | -33.95256 | 151.17576 | 28 ft | 16 kts | 299° |
| 2026-05-06 09:09 | -33.95121 | 151.17522 | 29 ft | 23 kts | 346° |
| 2026-05-06 09:09 | -33.94950 | 151.17480 | 29 ft | 26 kts | 348° |
| 2026-05-06 09:09 | -33.94753 | 151.17428 | 29 ft | 30 kts | 348° |
| 2026-05-06 09:09 | -33.94545 | 151.17374 | 30 ft | 30 kts | 347° |
| 2026-05-06 09:10 | -33.94354 | 151.17324 | 29 ft | 24 kts | 347° |
| 2026-05-06 09:10 | -33.94317 | 151.17314 | 29 ft | 9 kts | 348° |
| 2026-05-06 09:10 | -33.94209 | 151.17288 | 28 ft | 22 kts | 349° |
| 2026-05-06 09:10 | -33.94058 | 151.17247 | 28 ft | 20 kts | 351° |
| 2026-05-06 09:11 | -33.93983 | 151.17173 | 29 ft | 9 kts | 256° |
| 2026-05-06 09:11 | -33.93946 | 151.17103 | 29 ft | 16 kts | 340° |
| 2026-05-06 09:11 | -33.93853 | 151.17077 | 29 ft | 7 kts | 346° |
| 2026-05-06 09:11 | -33.93846 | 151.17027 | 29 ft | 6 kts | 250° |
| 2026-05-06 09:12 | -33.93853 | 151.16998 | 29 ft | 7 kts | 255° |
| 2026-05-06 09:12 | -33.93858 | 151.16973 | 29 ft | 2 kts | 255° |
| 2026-05-06 09:12 | -33.93861 | 151.16963 | 29 ft | 0 kts | 253° |